Navarre, MN

11:28 PM CST on November 23, 2014 (GMT -0600)
Hadley Lake | Change Station
CLOSE
Current Station
Personal Weather Station
Location: Minneapolis, MN
Elevation: 994 ft
Nearby Weather Stations

Elev 994 ft 44.98 °N, 93.51 °W | Updated 14 seconds ago

Snow
Snow
32.4 °F
Feels Like 24 °F
N
10.5
Wind Variable Wind from NW
Gusts 12.3 mph

Today
High -- | Low -- °F
--% Chance of Precip.
Yesterday
High -- | Low -- °F
Precip. -- in
7:22 AM 4:38 PM
Waxing Crescent, 4% visible
Pressure 29.36 in
Visibility 3.0 miles
Clouds Mostly Cloudy 2100 ft
Overcast 4100 ft
Windchill 24 °F
Dew Point 28 °F
Humidity 83%
Rainfall 0.02 in
Snow Depth Not available.
UV 0 out of 12
Pollen .10 out of 12
Air Quality Not available.
Flu Activity Not available.
METAR KFCM 240453Z AUTO 31014G21KT 3SM -SN BR BKN021 OVC041 01/M02 A2934 RMK AO2 SNE20B37 SLP940 P0000 T00061017

More Conditions Fewer Conditions

Pressure 29.36 in
Visibility 3.0 miles
Clouds Mostly Cloudy 2100 ft
Overcast 4100 ft
Windchill 24 °F
Dew Point 28 °F
Humidity 83%
Rainfall 0.02 in
Snow Depth Not available.
UV 0 out of 12
Pollen .10 out of 12
Air Quality Not available.
Flu Activity Not available.
METAR KFCM 240453Z AUTO 31014G21KT 3SM -SN BR BKN021 OVC041 01/M02 A2934 RMK AO2 SNE20B37 SLP940 P0000 T00061017

More Conditions Fewer Conditions

10-Day Weather Forecast

Almanac

Astronomy

Nov. 23, 2014 Rise Set
Actual Time
Civil Twilight
Nautical Twilight
Astronomical Twilight
Moon
Length of Visible Light
Length of Day
Tomorrow will be .
, % of the Moon is Illuminated

Today's Extremes

State Highs State Lows

Community

WunderPhotos

Upload Photos

1,773,269 photos uploaded!

WunderBlogs® & News

Nearby

Air Quality

  Air Quality AQ Index Pollutant
Not available.

Snow Depth

Station Depth Elevation

Earthquake Activity

City Distance Mag. Time & Date
Minimum magnitude displayed is 2.5.

Coastal Water Temperatures

Place Temperature

Nearby Weather Stations